sensor_id;sensor_type;location;lat;lon;timestamp;P1;durP1;ratioP1;P2;durP2;ratioP2
7933;SDS011;4012;48.896;9.192;2022-12-16T00:01:28;25.20;;;16.50;;
7933;SDS011;4012;48.896;9.192;2022-12-16T00:03:54;26.07;;;15.87;;
7933;SDS011;4012;48.896;9.192;2022-12-16T00:06:22;24.80;;;15.07;;
7933;SDS011;4012;48.896;9.192;2022-12-16T00:08:49;27.07;;;16.57;;
7933;SDS011;4012;48.896;9.192;2022-12-16T00:11:15;26.60;;;15.43;;
7933;SDS011;4012;48.896;9.192;2022-12-16T00:13:40;25.13;;;15.87;;
7933;SDS011;4012;48.896;9.192;2022-12-16T00:16:07;24.03;;;15.50;;
7933;SDS011;4012;48.896;9.192;2022-12-16T00:18:35;23.73;;;13.70;;
7933;SDS011;4012;48.896;9.192;2022-12-16T00:21:01;20.20;;;12.93;;
7933;SDS011;4012;48.896;9.192;2022-12-16T00:23:28;21.93;;;15.53;;
7933;SDS011;4012;48.896;9.192;2022-12-16T00:25:54;24.20;;;15.70;;
7933;SDS011;4012;48.896;9.192;2022-12-16T00:28:20;24.23;;;15.13;;
7933;SDS011;4012;48.896;9.192;2022-12-16T00:30:51;26.70;;;16.20;;
7933;SDS011;4012;48.896;9.192;2022-12-16T00:33:22;19.17;;;12.30;;
7933;SDS011;4012;48.896;9.192;2022-12-16T00:35:49;26.33;;;16.77;;
7933;SDS011;4012;48.896;9.192;2022-12-16T00:38:15;22.33;;;15.83;;
7933;SDS011;4012;48.896;9.192;2022-12-16T00:40:41;24.63;;;14.40;;
7933;SDS011;4012;48.896;9.192;2022-12-16T00:43:07;25.90;;;15.23;;
7933;SDS011;4012;48.896;9.192;2022-12-16T00:45:33;23.63;;;15.13;;
7933;SDS011;4012;48.896;9.192;2022-12-16T00:47:59;20.70;;;14.47;;
7933;SDS011;4012;48.896;9.192;2022-12-16T00:50:25;26.53;;;15.63;;
7933;SDS011;4012;48.896;9.192;2022-12-16T00:52:51;23.30;;;14.67;;
7933;SDS011;4012;48.896;9.192;2022-12-16T00:55:17;22.13;;;14.43;;
7933;SDS011;4012;48.896;9.192;2022-12-16T00:57:43;24.40;;;14.10;;
7933;SDS011;4012;48.896;9.192;2022-12-16T01:00:09;23.13;;;15.33;;
7933;SDS011;4012;48.896;9.192;2022-12-16T01:02:38;27.10;;;16.27;;
7933;SDS011;4012;48.896;9.192;2022-12-16T01:05:08;24.47;;;15.43;;
7933;SDS011;4012;48.896;9.192;2022-12-16T01:07:35;26.10;;;15.63;;
7933;SDS011;4012;48.896;9.192;2022-12-16T01:10:01;27.97;;;15.87;;
7933;SDS011;4012;48.896;9.192;2022-12-16T01:12:27;24.00;;;15.63;;
7933;SDS011;4012;48.896;9.192;2022-12-16T01:14:53;26.90;;;16.57;;
7933;SDS011;4012;48.896;9.192;2022-12-16T01:17:19;24.97;;;15.97;;
7933;SDS011;4012;48.896;9.192;2022-12-16T01:19:44;24.30;;;15.33;;
7933;SDS011;4012;48.896;9.192;2022-12-16T01:22:10;25.27;;;16.33;;
7933;SDS011;4012;48.896;9.192;2022-12-16T01:24:36;25.23;;;16.67;;
7933;SDS011;4012;48.896;9.192;2022-12-16T01:27:02;34.43;;;17.60;;
7933;SDS011;4012;48.896;9.192;2022-12-16T01:29:27;27.00;;;15.33;;
7933;SDS011;4012;48.896;9.192;2022-12-16T01:31:53;23.67;;;16.13;;
7933;SDS011;4012;48.896;9.192;2022-12-16T01:34:18;27.80;;;17.10;;
7933;SDS011;4012;48.896;9.192;2022-12-16T01:36:47;27.30;;;16.33;;
7933;SDS011;4012;48.896;9.192;2022-12-16T01:39:12;24.77;;;16.43;;
7933;SDS011;4012;48.896;9.192;2022-12-16T01:41:38;23.60;;;15.43;;
7933;SDS011;4012;48.896;9.192;2022-12-16T01:44:17;26.50;;;15.97;;
7933;SDS011;4012;48.896;9.192;2022-12-16T01:46:57;24.10;;;15.37;;
7933;SDS011;4012;48.896;9.192;2022-12-16T01:49:27;21.90;;;14.30;;
7933;SDS011;4012;48.896;9.192;2022-12-16T01:51:59;23.13;;;14.93;;
7933;SDS011;4012;48.896;9.192;2022-12-16T01:54:28;21.60;;;12.87;;
7933;SDS011;4012;48.896;9.192;2022-12-16T01:57:01;27.70;;;14.60;;
7933;SDS011;4012;48.896;9.192;2022-12-16T01:59:31;24.40;;;15.67;;
7933;SDS011;4012;48.896;9.192;2022-12-16T02:01:58;27.57;;;16.87;;
7933;SDS011;4012;48.896;9.192;2022-12-16T02:04:24;24.67;;;16.47;;
7933;SDS011;4012;48.896;9.192;2022-12-16T02:06:49;25.00;;;15.87;;
7933;SDS011;4012;48.896;9.192;2022-12-16T02:09:15;27.23;;;15.27;;
7933;SDS011;4012;48.896;9.192;2022-12-16T02:20:33;23.20;;;15.43;;
7933;SDS011;4012;48.896;9.192;2022-12-16T02:31:07;24.40;;;15.47;;
7933;SDS011;4012;48.896;9.192;2022-12-16T02:33:47;23.60;;;15.83;;
7933;SDS011;4012;48.896;9.192;2022-12-16T02:39:21;24.80;;;15.87;;
7933;SDS011;4012;48.896;9.192;2022-12-16T02:42:14;23.83;;;13.80;;
7933;SDS011;4012;48.896;9.192;2022-12-16T02:44:53;22.27;;;13.83;;
7933;SDS011;4012;48.896;9.192;2022-12-16T02:47:25;23.17;;;15.97;;
7933;SDS011;4012;48.896;9.192;2022-12-16T02:49:52;24.40;;;15.83;;
7933;SDS011;4012;48.896;9.192;2022-12-16T02:52:26;23.43;;;14.40;;
7933;SDS011;4012;48.896;9.192;2022-12-16T02:54:56;22.17;;;14.30;;
7933;SDS011;4012;48.896;9.192;2022-12-16T03:00:19;22.30;;;14.07;;
7933;SDS011;4012;48.896;9.192;2022-12-16T03:05:25;23.20;;;14.53;;
7933;SDS011;4012;48.896;9.192;2022-12-16T03:08:05;22.20;;;15.53;;
7933;SDS011;4012;48.896;9.192;2022-12-16T03:10:36;20.70;;;12.90;;
7933;SDS011;4012;48.896;9.192;2022-12-16T03:13:05;24.50;;;13.67;;
7933;SDS011;4012;48.896;9.192;2022-12-16T03:15:32;24.20;;;14.83;;
7933;SDS011;4012;48.896;9.192;2022-12-16T03:18:00;21.40;;;13.73;;
7933;SDS011;4012;48.896;9.192;2022-12-16T03:23:14;20.07;;;12.93;;
7933;SDS011;4012;48.896;9.192;2022-12-16T03:25:44;17.03;;;11.63;;
7933;SDS011;4012;48.896;9.192;2022-12-16T03:28:17;23.67;;;14.07;;
7933;SDS011;4012;48.896;9.192;2022-12-16T03:30:51;17.93;;;11.70;;
7933;SDS011;4012;48.896;9.192;2022-12-16T03:33:25;18.40;;;13.00;;
7933;SDS011;4012;48.896;9.192;2022-12-16T03:35:55;19.60;;;12.87;;
7933;SDS011;4012;48.896;9.192;2022-12-16T03:38:25;20.00;;;13.20;;
7933;SDS011;4012;48.896;9.192;2022-12-16T03:40:56;20.50;;;13.38;;
7933;SDS011;4012;48.896;9.192;2022-12-16T03:43:23;18.13;;;11.77;;
7933;SDS011;4012;48.896;9.192;2022-12-16T03:45:50;18.70;;;11.63;;
7933;SDS011;4012;48.896;9.192;2022-12-16T03:48:24;20.80;;;12.93;;
7933;SDS011;4012;48.896;9.192;2022-12-16T03:50:50;20.57;;;13.57;;
7933;SDS011;4012;48.896;9.192;2022-12-16T03:53:16;19.30;;;12.30;;
7933;SDS011;4012;48.896;9.192;2022-12-16T03:55:42;18.77;;;10.70;;
7933;SDS011;4012;48.896;9.192;2022-12-16T03:58:08;22.80;;;12.97;;
7933;SDS011;4012;48.896;9.192;2022-12-16T04:00:34;19.60;;;13.90;;
7933;SDS011;4012;48.896;9.192;2022-12-16T04:03:00;22.00;;;12.63;;
7933;SDS011;4012;48.896;9.192;2022-12-16T04:05:25;18.57;;;12.00;;
7933;SDS011;4012;48.896;9.192;2022-12-16T04:07:51;23.33;;;12.03;;
7933;SDS011;4012;48.896;9.192;2022-12-16T04:10:17;20.17;;;12.63;;
7933;SDS011;4012;48.896;9.192;2022-12-16T04:13:03;18.40;;;11.60;;
7933;SDS011;4012;48.896;9.192;2022-12-16T04:15:47;16.67;;;11.37;;
7933;SDS011;4012;48.896;9.192;2022-12-16T04:18:31;18.67;;;12.23;;
7933;SDS011;4012;48.896;9.192;2022-12-16T04:21:12;19.40;;;12.10;;
7933;SDS011;4012;48.896;9.192;2022-12-16T04:23:56;15.90;;;11.63;;
7933;SDS011;4012;48.896;9.192;2022-12-16T04:26:41;18.73;;;12.23;;
7933;SDS011;4012;48.896;9.192;2022-12-16T04:29:25;21.70;;;11.50;;
7933;SDS011;4012;48.896;9.192;2022-12-16T04:31:50;20.23;;;12.10;;
7933;SDS011;4012;48.896;9.192;2022-12-16T04:34:16;19.47;;;11.60;;
7933;SDS011;4012;48.896;9.192;2022-12-16T04:36:59;18.97;;;12.63;;
7933;SDS011;4012;48.896;9.192;2022-12-16T04:39:45;18.30;;;11.80;;
7933;SDS011;4012;48.896;9.192;2022-12-16T04:42:30;19.90;;;11.07;;
7933;SDS011;4012;48.896;9.192;2022-12-16T04:45:15;16.07;;;11.13;;
7933;SDS011;4012;48.896;9.192;2022-12-16T04:47:59;21.70;;;11.90;;
7933;SDS011;4012;48.896;9.192;2022-12-16T04:50:44;16.50;;;11.47;;
7933;SDS011;4012;48.896;9.192;2022-12-16T04:53:29;19.93;;;11.73;;
7933;SDS011;4012;48.896;9.192;2022-12-16T04:56:13;18.27;;;11.10;;
7933;SDS011;4012;48.896;9.192;2022-12-16T04:58:57;17.37;;;11.50;;
7933;SDS011;4012;48.896;9.192;2022-12-16T05:01:41;13.33;;;9.80;;
7933;SDS011;4012;48.896;9.192;2022-12-16T05:04:25;16.83;;;11.13;;
7933;SDS011;4012;48.896;9.192;2022-12-16T05:07:09;16.40;;;10.00;;
7933;SDS011;4012;48.896;9.192;2022-12-16T05:09:54;18.23;;;10.03;;
7933;SDS011;4012;48.896;9.192;2022-12-16T05:12:38;17.63;;;10.67;;
7933;SDS011;4012;48.896;9.192;2022-12-16T05:15:22;19.63;;;10.00;;
7933;SDS011;4012;48.896;9.192;2022-12-16T05:18:13;15.17;;;9.63;;
7933;SDS011;4012;48.896;9.192;2022-12-16T05:20:59;14.40;;;9.50;;
7933;SDS011;4012;48.896;9.192;2022-12-16T05:23:44;16.23;;;10.40;;
7933;SDS011;4012;48.896;9.192;2022-12-16T05:26:30;18.33;;;10.53;;
7933;SDS011;4012;48.896;9.192;2022-12-16T05:29:14;17.23;;;9.70;;
7933;SDS011;4012;48.896;9.192;2022-12-16T05:31:58;12.93;;;9.23;;
7933;SDS011;4012;48.896;9.192;2022-12-16T05:34:42;16.43;;;9.47;;
7933;SDS011;4012;48.896;9.192;2022-12-16T05:37:26;15.10;;;9.07;;
7933;SDS011;4012;48.896;9.192;2022-12-16T05:40:10;12.87;;;9.90;;
7933;SDS011;4012;48.896;9.192;2022-12-16T05:42:55;17.10;;;9.90;;
7933;SDS011;4012;48.896;9.192;2022-12-16T05:45:40;17.33;;;10.40;;
7933;SDS011;4012;48.896;9.192;2022-12-16T05:48:24;16.57;;;10.03;;
7933;SDS011;4012;48.896;9.192;2022-12-16T05:51:08;14.57;;;9.37;;
7933;SDS011;4012;48.896;9.192;2022-12-16T05:53:52;14.63;;;10.20;;
7933;SDS011;4012;48.896;9.192;2022-12-16T05:56:36;19.87;;;10.40;;
7933;SDS011;4012;48.896;9.192;2022-12-16T05:59:20;18.63;;;9.97;;
7933;SDS011;4012;48.896;9.192;2022-12-16T06:02:04;16.00;;;10.23;;
7933;SDS011;4012;48.896;9.192;2022-12-16T06:04:48;16.53;;;9.83;;
7933;SDS011;4012;48.896;9.192;2022-12-16T06:07:32;15.13;;;9.60;;
7933;SDS011;4012;48.896;9.192;2022-12-16T06:10:17;13.20;;;9.77;;
7933;SDS011;4012;48.896;9.192;2022-12-16T06:13:01;15.70;;;9.73;;
7933;SDS011;4012;48.896;9.192;2022-12-16T06:15:45;15.10;;;10.37;;
7933;SDS011;4012;48.896;9.192;2022-12-16T06:18:32;19.53;;;10.77;;
7933;SDS011;4012;48.896;9.192;2022-12-16T06:21:16;14.47;;;10.30;;
7933;SDS011;4012;48.896;9.192;2022-12-16T06:24:00;15.53;;;9.83;;
7933;SDS011;4012;48.896;9.192;2022-12-16T06:26:44;14.20;;;9.70;;
7933;SDS011;4012;48.896;9.192;2022-12-16T06:29:28;15.70;;;9.90;;
7933;SDS011;4012;48.896;9.192;2022-12-16T06:32:12;17.33;;;11.37;;
7933;SDS011;4012;48.896;9.192;2022-12-16T06:34:56;17.10;;;10.67;;
7933;SDS011;4012;48.896;9.192;2022-12-16T06:37:41;16.07;;;10.97;;
7933;SDS011;4012;48.896;9.192;2022-12-16T06:40:25;17.93;;;11.50;;
7933;SDS011;4012;48.896;9.192;2022-12-16T06:43:09;24.93;;;13.67;;
7933;SDS011;4012;48.896;9.192;2022-12-16T06:45:53;16.27;;;11.47;;
7933;SDS011;4012;48.896;9.192;2022-12-16T06:48:37;16.47;;;9.73;;
7933;SDS011;4012;48.896;9.192;2022-12-16T06:51:21;12.20;;;9.10;;
7933;SDS011;4012;48.896;9.192;2022-12-16T06:54:05;14.87;;;10.77;;
7933;SDS011;4012;48.896;9.192;2022-12-16T06:56:49;15.97;;;10.13;;
7933;SDS011;4012;48.896;9.192;2022-12-16T06:59:33;17.20;;;10.67;;
7933;SDS011;4012;48.896;9.192;2022-12-16T07:02:17;15.37;;;10.53;;
7933;SDS011;4012;48.896;9.192;2022-12-16T07:05:02;16.40;;;10.93;;
7933;SDS011;4012;48.896;9.192;2022-12-16T07:07:47;17.87;;;11.07;;
7933;SDS011;4012;48.896;9.192;2022-12-16T07:10:33;15.13;;;10.17;;
7933;SDS011;4012;48.896;9.192;2022-12-16T07:13:17;16.80;;;11.13;;
7933;SDS011;4012;48.896;9.192;2022-12-16T07:16:01;18.37;;;10.83;;
7933;SDS011;4012;48.896;9.192;2022-12-16T07:18:45;17.07;;;10.57;;
7933;SDS011;4012;48.896;9.192;2022-12-16T07:21:29;13.47;;;9.87;;
7933;SDS011;4012;48.896;9.192;2022-12-16T07:24:13;16.00;;;10.17;;
7933;SDS011;4012;48.896;9.192;2022-12-16T07:26:57;15.53;;;11.17;;
7933;SDS011;4012;48.896;9.192;2022-12-16T07:29:42;18.00;;;10.80;;
7933;SDS011;4012;48.896;9.192;2022-12-16T07:32:26;15.10;;;10.40;;
7933;SDS011;4012;48.896;9.192;2022-12-16T07:35:10;13.23;;;9.97;;
7933;SDS011;4012;48.896;9.192;2022-12-16T07:37:54;14.70;;;10.67;;
7933;SDS011;4012;48.896;9.192;2022-12-16T07:40:38;14.47;;;10.47;;
7933;SDS011;4012;48.896;9.192;2022-12-16T07:43:22;13.87;;;10.50;;
7933;SDS011;4012;48.896;9.192;2022-12-16T07:46:06;14.23;;;9.87;;
7933;SDS011;4012;48.896;9.192;2022-12-16T07:49:04;16.27;;;10.03;;
7933;SDS011;4012;48.896;9.192;2022-12-16T07:51:48;13.87;;;8.93;;
7933;SDS011;4012;48.896;9.192;2022-12-16T07:54:32;15.23;;;9.10;;
7933;SDS011;4012;48.896;9.192;2022-12-16T07:57:16;13.43;;;9.17;;
7933;SDS011;4012;48.896;9.192;2022-12-16T08:00:00;14.10;;;10.20;;
7933;SDS011;4012;48.896;9.192;2022-12-16T08:02:45;16.90;;;11.10;;
7933;SDS011;4012;48.896;9.192;2022-12-16T08:05:36;14.73;;;9.60;;
7933;SDS011;4012;48.896;9.192;2022-12-16T08:08:27;13.67;;;9.13;;
7933;SDS011;4012;48.896;9.192;2022-12-16T08:11:12;12.53;;;9.17;;
7933;SDS011;4012;48.896;9.192;2022-12-16T08:13:56;16.30;;;9.30;;
7933;SDS011;4012;48.896;9.192;2022-12-16T08:16:40;13.90;;;9.30;;
7933;SDS011;4012;48.896;9.192;2022-12-16T08:19:24;11.97;;;8.30;;
7933;SDS011;4012;48.896;9.192;2022-12-16T08:22:08;13.73;;;8.57;;
7933;SDS011;4012;48.896;9.192;2022-12-16T08:24:52;19.07;;;9.40;;
7933;SDS011;4012;48.896;9.192;2022-12-16T08:27:36;11.30;;;8.43;;
7933;SDS011;4012;48.896;9.192;2022-12-16T08:30:20;14.53;;;8.97;;
7933;SDS011;4012;48.896;9.192;2022-12-16T08:33:04;11.27;;;8.53;;
7933;SDS011;4012;48.896;9.192;2022-12-16T08:35:48;13.77;;;8.30;;
7933;SDS011;4012;48.896;9.192;2022-12-16T08:38:32;16.57;;;9.30;;
7933;SDS011;4012;48.896;9.192;2022-12-16T08:41:16;14.50;;;9.97;;
7933;SDS011;4012;48.896;9.192;2022-12-16T08:44:01;14.73;;;10.77;;
7933;SDS011;4012;48.896;9.192;2022-12-16T08:46:45;17.60;;;11.47;;
7933;SDS011;4012;48.896;9.192;2022-12-16T08:49:29;16.90;;;10.97;;
7933;SDS011;4012;48.896;9.192;2022-12-16T08:52:13;18.27;;;12.07;;
7933;SDS011;4012;48.896;9.192;2022-12-16T08:55:11;22.33;;;15.77;;
7933;SDS011;4012;48.896;9.192;2022-12-16T08:57:55;16.07;;;12.43;;
7933;SDS011;4012;48.896;9.192;2022-12-16T09:00:39;20.53;;;14.60;;
7933;SDS011;4012;48.896;9.192;2022-12-16T09:03:23;16.77;;;9.10;;
7933;SDS011;4012;48.896;9.192;2022-12-16T09:06:08;13.23;;;8.40;;
7933;SDS011;4012;48.896;9.192;2022-12-16T09:08:52;12.37;;;8.50;;
7933;SDS011;4012;48.896;9.192;2022-12-16T09:11:36;11.07;;;8.43;;
7933;SDS011;4012;48.896;9.192;2022-12-16T09:14:20;12.17;;;8.77;;
7933;SDS011;4012;48.896;9.192;2022-12-16T09:17:05;10.80;;;8.23;;
7933;SDS011;4012;48.896;9.192;2022-12-16T09:19:51;12.00;;;8.40;;
7933;SDS011;4012;48.896;9.192;2022-12-16T09:22:35;12.07;;;8.73;;
7933;SDS011;4012;48.896;9.192;2022-12-16T09:25:19;14.83;;;9.40;;
7933;SDS011;4012;48.896;9.192;2022-12-16T09:28:03;12.73;;;8.10;;
7933;SDS011;4012;48.896;9.192;2022-12-16T09:30:48;12.53;;;8.93;;
7933;SDS011;4012;48.896;9.192;2022-12-16T09:33:32;12.13;;;8.07;;
7933;SDS011;4012;48.896;9.192;2022-12-16T09:36:16;9.77;;;7.60;;
7933;SDS011;4012;48.896;9.192;2022-12-16T09:39:00;12.87;;;8.27;;
7933;SDS011;4012;48.896;9.192;2022-12-16T09:41:48;13.50;;;9.20;;
7933;SDS011;4012;48.896;9.192;2022-12-16T09:44:59;12.67;;;7.80;;
7933;SDS011;4012;48.896;9.192;2022-12-16T09:51:01;20.07;;;14.03;;
7933;SDS011;4012;48.896;9.192;2022-12-16T09:53:49;21.07;;;13.60;;
7933;SDS011;4012;48.896;9.192;2022-12-16T09:56:35;16.03;;;11.33;;
7933;SDS011;4012;48.896;9.192;2022-12-16T09:59:27;12.67;;;6.70;;
7933;SDS011;4012;48.896;9.192;2022-12-16T10:02:22;18.87;;;10.07;;
7933;SDS011;4012;48.896;9.192;2022-12-16T10:05:11;20.07;;;13.23;;
7933;SDS011;4012;48.896;9.192;2022-12-16T10:08:04;15.23;;;11.60;;
7933;SDS011;4012;48.896;9.192;2022-12-16T10:11:18;13.27;;;8.23;;
7933;SDS011;4012;48.896;9.192;2022-12-16T10:16:59;14.10;;;10.47;;
7933;SDS011;4012;48.896;9.192;2022-12-16T10:20:16;12.53;;;8.83;;
7933;SDS011;4012;48.896;9.192;2022-12-16T10:23:31;10.27;;;7.03;;
7933;SDS011;4012;48.896;9.192;2022-12-16T10:26:52;11.97;;;7.33;;
7933;SDS011;4012;48.896;9.192;2022-12-16T10:29:49;14.87;;;9.63;;
7933;SDS011;4012;48.896;9.192;2022-12-16T10:32:40;14.47;;;9.30;;
7933;SDS011;4012;48.896;9.192;2022-12-16T10:35:46;10.23;;;6.97;;
7933;SDS011;4012;48.896;9.192;2022-12-16T10:38:39;9.80;;;6.83;;
7933;SDS011;4012;48.896;9.192;2022-12-16T10:41:25;10.93;;;6.93;;
7933;SDS011;4012;48.896;9.192;2022-12-16T10:44:19;15.63;;;5.73;;
7933;SDS011;4012;48.896;9.192;2022-12-16T10:47:17;10.60;;;7.27;;
7933;SDS011;4012;48.896;9.192;2022-12-16T10:50:01;10.73;;;6.93;;
7933;SDS011;4012;48.896;9.192;2022-12-16T10:52:56;9.67;;;7.00;;
7933;SDS011;4012;48.896;9.192;2022-12-16T10:59:07;12.90;;;7.30;;
7933;SDS011;4012;48.896;9.192;2022-12-16T11:01:59;9.00;;;6.00;;
7933;SDS011;4012;48.896;9.192;2022-12-16T11:04:45;8.10;;;5.60;;
7933;SDS011;4012;48.896;9.192;2022-12-16T11:07:32;12.23;;;7.97;;
7933;SDS011;4012;48.896;9.192;2022-12-16T11:10:38;13.97;;;7.13;;
7933;SDS011;4012;48.896;9.192;2022-12-16T11:13:26;13.17;;;7.53;;
7933;SDS011;4012;48.896;9.192;2022-12-16T11:16:26;10.03;;;6.43;;
7933;SDS011;4012;48.896;9.192;2022-12-16T11:19:27;14.10;;;8.53;;
7933;SDS011;4012;48.896;9.192;2022-12-16T11:22:19;12.27;;;6.73;;
7933;SDS011;4012;48.896;9.192;2022-12-16T11:28:10;11.80;;;7.13;;
7933;SDS011;4012;48.896;9.192;2022-12-16T11:31:12;8.93;;;6.07;;
7933;SDS011;4012;48.896;9.192;2022-12-16T11:33:59;12.40;;;6.57;;
7933;SDS011;4012;48.896;9.192;2022-12-16T11:36:45;11.50;;;5.80;;
7933;SDS011;4012;48.896;9.192;2022-12-16T11:39:45;10.17;;;7.43;;
7933;SDS011;4012;48.896;9.192;2022-12-16T11:42:37;13.00;;;7.80;;
7933;SDS011;4012;48.896;9.192;2022-12-16T11:45:22;12.83;;;8.23;;
7933;SDS011;4012;48.896;9.192;2022-12-16T11:48:07;11.77;;;6.77;;
7933;SDS011;4012;48.896;9.192;2022-12-16T11:51:05;12.23;;;6.33;;
7933;SDS011;4012;48.896;9.192;2022-12-16T11:53:59;10.57;;;6.93;;
7933;SDS011;4012;48.896;9.192;2022-12-16T11:56:56;12.13;;;7.20;;
7933;SDS011;4012;48.896;9.192;2022-12-16T12:02:46;8.27;;;6.20;;
7933;SDS011;4012;48.896;9.192;2022-12-16T12:11:37;13.40;;;8.07;;
7933;SDS011;4012;48.896;9.192;2022-12-16T12:14:46;9.43;;;5.87;;
7933;SDS011;4012;48.896;9.192;2022-12-16T12:17:45;10.70;;;7.83;;
7933;SDS011;4012;48.896;9.192;2022-12-16T12:21:08;7.93;;;5.70;;
7933;SDS011;4012;48.896;9.192;2022-12-16T12:27:33;9.83;;;6.13;;
7933;SDS011;4012;48.896;9.192;2022-12-16T12:30:18;11.87;;;7.40;;
7933;SDS011;4012;48.896;9.192;2022-12-16T12:36:28;12.50;;;5.53;;
7933;SDS011;4012;48.896;9.192;2022-12-16T12:42:16;10.50;;;6.87;;
7933;SDS011;4012;48.896;9.192;2022-12-16T12:48:25;12.77;;;7.53;;
7933;SDS011;4012;48.896;9.192;2022-12-16T12:54:08;10.47;;;6.43;;
7933;SDS011;4012;48.896;9.192;2022-12-16T12:57:02;14.17;;;7.23;;
7933;SDS011;4012;48.896;9.192;2022-12-16T12:59:54;10.00;;;6.73;;
7933;SDS011;4012;48.896;9.192;2022-12-16T13:05:42;12.03;;;7.43;;
7933;SDS011;4012;48.896;9.192;2022-12-16T13:11:17;12.60;;;7.90;;
7933;SDS011;4012;48.896;9.192;2022-12-16T13:14:46;12.47;;;7.67;;
7933;SDS011;4012;48.896;9.192;2022-12-16T13:17:20;12.30;;;8.17;;
7933;SDS011;4012;48.896;9.192;2022-12-16T13:20:32;9.87;;;7.70;;
7933;SDS011;4012;48.896;9.192;2022-12-16T13:23:48;14.47;;;6.97;;
7933;SDS011;4012;48.896;9.192;2022-12-16T13:26:30;8.20;;;5.77;;
7933;SDS011;4012;48.896;9.192;2022-12-16T13:37:53;8.87;;;6.27;;
7933;SDS011;4012;48.896;9.192;2022-12-16T13:40:55;14.87;;;7.00;;
7933;SDS011;4012;48.896;9.192;2022-12-16T13:43:44;9.57;;;7.07;;
7933;SDS011;4012;48.896;9.192;2022-12-16T14:04:33;30.10;;;18.20;;
7933;SDS011;4012;48.896;9.192;2022-12-16T14:07:21;10.90;;;7.23;;
7933;SDS011;4012;48.896;9.192;2022-12-16T14:10:22;9.50;;;6.70;;
7933;SDS011;4012;48.896;9.192;2022-12-16T14:13:06;11.03;;;7.37;;
7933;SDS011;4012;48.896;9.192;2022-12-16T14:25:24;11.33;;;8.00;;
7933;SDS011;4012;48.896;9.192;2022-12-16T14:28:27;10.60;;;6.83;;
7933;SDS011;4012;48.896;9.192;2022-12-16T14:31:22;9.43;;;6.87;;
7933;SDS011;4012;48.896;9.192;2022-12-16T14:34:18;12.30;;;7.97;;
7933;SDS011;4012;48.896;9.192;2022-12-16T14:37:15;10.50;;;6.93;;
7933;SDS011;4012;48.896;9.192;2022-12-16T14:40:04;11.13;;;7.33;;
7933;SDS011;4012;48.896;9.192;2022-12-16T14:43:14;12.43;;;7.70;;
7933;SDS011;4012;48.896;9.192;2022-12-16T14:45:59;15.37;;;8.17;;
7933;SDS011;4012;48.896;9.192;2022-12-16T14:48:44;15.17;;;9.37;;
7933;SDS011;4012;48.896;9.192;2022-12-16T14:51:34;11.33;;;6.40;;
7933;SDS011;4012;48.896;9.192;2022-12-16T14:57:18;10.63;;;8.17;;
7933;SDS011;4012;48.896;9.192;2022-12-16T15:06:05;12.70;;;8.30;;
7933;SDS011;4012;48.896;9.192;2022-12-16T15:08:54;9.57;;;5.97;;
7933;SDS011;4012;48.896;9.192;2022-12-16T15:11:44;10.23;;;6.90;;
7933;SDS011;4012;48.896;9.192;2022-12-16T15:14:31;10.33;;;6.87;;
7933;SDS011;4012;48.896;9.192;2022-12-16T15:17:22;11.33;;;7.50;;
7933;SDS011;4012;48.896;9.192;2022-12-16T15:20:35;14.00;;;7.30;;
7933;SDS011;4012;48.896;9.192;2022-12-16T15:23:30;12.10;;;7.73;;
7933;SDS011;4012;48.896;9.192;2022-12-16T15:26:21;12.87;;;7.50;;
7933;SDS011;4012;48.896;9.192;2022-12-16T15:29:31;11.03;;;8.37;;
7933;SDS011;4012;48.896;9.192;2022-12-16T15:35:24;13.83;;;9.27;;
7933;SDS011;4012;48.896;9.192;2022-12-16T15:41:32;10.93;;;6.97;;
7933;SDS011;4012;48.896;9.192;2022-12-16T15:44:18;10.23;;;7.10;;
7933;SDS011;4012;48.896;9.192;2022-12-16T15:50:15;15.57;;;8.83;;
7933;SDS011;4012;48.896;9.192;2022-12-16T15:56:17;16.10;;;9.80;;
7933;SDS011;4012;48.896;9.192;2022-12-16T15:59:22;12.40;;;9.00;;
7933;SDS011;4012;48.896;9.192;2022-12-16T16:02:27;11.30;;;8.30;;
7933;SDS011;4012;48.896;9.192;2022-12-16T16:05:17;12.90;;;8.20;;
7933;SDS011;4012;48.896;9.192;2022-12-16T16:08:05;14.63;;;9.77;;
7933;SDS011;4012;48.896;9.192;2022-12-16T16:10:49;14.13;;;9.60;;
7933;SDS011;4012;48.896;9.192;2022-12-16T16:13:33;16.00;;;8.50;;
7933;SDS011;4012;48.896;9.192;2022-12-16T16:16:17;15.77;;;9.47;;
7933;SDS011;4012;48.896;9.192;2022-12-16T16:19:02;13.97;;;9.23;;
7933;SDS011;4012;48.896;9.192;2022-12-16T16:21:47;11.43;;;8.10;;
7933;SDS011;4012;48.896;9.192;2022-12-16T16:24:31;15.47;;;10.43;;
7933;SDS011;4012;48.896;9.192;2022-12-16T16:27:15;16.43;;;9.73;;
7933;SDS011;4012;48.896;9.192;2022-12-16T16:30:01;15.17;;;9.93;;
7933;SDS011;4012;48.896;9.192;2022-12-16T16:32:46;13.67;;;8.67;;
7933;SDS011;4012;48.896;9.192;2022-12-16T16:35:31;18.30;;;9.97;;
7933;SDS011;4012;48.896;9.192;2022-12-16T16:38:15;14.57;;;9.47;;
7933;SDS011;4012;48.896;9.192;2022-12-16T16:41:00;13.37;;;7.23;;
7933;SDS011;4012;48.896;9.192;2022-12-16T16:43:44;20.03;;;12.37;;
7933;SDS011;4012;48.896;9.192;2022-12-16T16:46:39;22.43;;;11.90;;
7933;SDS011;4012;48.896;9.192;2022-12-16T16:49:32;16.13;;;9.67;;
7933;SDS011;4012;48.896;9.192;2022-12-16T16:52:19;16.63;;;10.80;;
7933;SDS011;4012;48.896;9.192;2022-12-16T16:55:06;17.50;;;10.57;;
7933;SDS011;4012;48.896;9.192;2022-12-16T16:57:56;19.10;;;12.07;;
7933;SDS011;4012;48.896;9.192;2022-12-16T17:00:40;17.13;;;11.83;;
7933;SDS011;4012;48.896;9.192;2022-12-16T17:03:24;21.83;;;12.03;;
7933;SDS011;4012;48.896;9.192;2022-12-16T17:06:08;21.23;;;12.77;;
7933;SDS011;4012;48.896;9.192;2022-12-16T17:08:52;15.87;;;10.70;;
7933;SDS011;4012;48.896;9.192;2022-12-16T17:11:36;25.77;;;13.90;;
7933;SDS011;4012;48.896;9.192;2022-12-16T17:14:21;25.90;;;13.93;;
7933;SDS011;4012;48.896;9.192;2022-12-16T17:17:05;16.53;;;10.90;;
7933;SDS011;4012;48.896;9.192;2022-12-16T17:19:50;19.43;;;12.77;;
7933;SDS011;4012;48.896;9.192;2022-12-16T17:22:34;16.30;;;10.37;;
7933;SDS011;4012;48.896;9.192;2022-12-16T17:25:18;17.57;;;11.10;;
7933;SDS011;4012;48.896;9.192;2022-12-16T17:28:03;20.77;;;11.73;;
7933;SDS011;4012;48.896;9.192;2022-12-16T17:30:48;25.67;;;14.63;;
7933;SDS011;4012;48.896;9.192;2022-12-16T17:33:33;19.43;;;13.03;;
7933;SDS011;4012;48.896;9.192;2022-12-16T17:36:17;19.30;;;12.70;;
7933;SDS011;4012;48.896;9.192;2022-12-16T17:39:02;18.73;;;12.50;;
7933;SDS011;4012;48.896;9.192;2022-12-16T17:41:47;19.13;;;11.40;;
7933;SDS011;4012;48.896;9.192;2022-12-16T17:44:31;19.40;;;12.40;;
7933;SDS011;4012;48.896;9.192;2022-12-16T17:47:15;18.80;;;11.73;;
7933;SDS011;4012;48.896;9.192;2022-12-16T17:50:00;14.43;;;10.07;;
7933;SDS011;4012;48.896;9.192;2022-12-16T17:52:44;23.30;;;13.93;;
7933;SDS011;4012;48.896;9.192;2022-12-16T17:55:28;16.33;;;11.40;;
7933;SDS011;4012;48.896;9.192;2022-12-16T17:58:13;18.03;;;11.60;;
7933;SDS011;4012;48.896;9.192;2022-12-16T18:01:01;28.83;;;16.33;;
7933;SDS011;4012;48.896;9.192;2022-12-16T18:03:46;26.53;;;13.67;;
7933;SDS011;4012;48.896;9.192;2022-12-16T18:06:31;22.60;;;13.63;;
7933;SDS011;4012;48.896;9.192;2022-12-16T18:09:14;28.40;;;14.50;;
7933;SDS011;4012;48.896;9.192;2022-12-16T18:11:59;20.90;;;13.17;;
7933;SDS011;4012;48.896;9.192;2022-12-16T18:14:42;21.97;;;14.10;;
7933;SDS011;4012;48.896;9.192;2022-12-16T18:17:27;19.30;;;13.07;;
7933;SDS011;4012;48.896;9.192;2022-12-16T18:20:11;25.63;;;14.13;;
7933;SDS011;4012;48.896;9.192;2022-12-16T18:22:55;28.83;;;16.13;;
7933;SDS011;4012;48.896;9.192;2022-12-16T18:25:39;22.57;;;14.47;;
7933;SDS011;4012;48.896;9.192;2022-12-16T18:28:23;24.33;;;15.50;;
7933;SDS011;4012;48.896;9.192;2022-12-16T18:31:07;19.43;;;12.23;;
7933;SDS011;4012;48.896;9.192;2022-12-16T18:33:51;22.17;;;14.57;;
7933;SDS011;4012;48.896;9.192;2022-12-16T18:36:36;26.97;;;15.30;;
7933;SDS011;4012;48.896;9.192;2022-12-16T18:39:20;22.23;;;14.33;;
7933;SDS011;4012;48.896;9.192;2022-12-16T18:42:04;20.40;;;13.33;;